createdAt,value
2024-01-11T00:01:11.046Z,28.50
2024-01-11T00:06:14.020Z,28.50
2024-01-11T00:11:18.572Z,28.60
2024-01-11T00:16:23.004Z,28.50
2024-01-11T00:21:25.870Z,28.50
2024-01-11T00:26:28.838Z,28.60
2024-01-11T00:31:33.099Z,28.60
2024-01-11T00:36:37.719Z,28.60
2024-01-11T00:41:40.661Z,28.60
2024-01-11T00:46:44.933Z,28.60
2024-01-11T00:51:47.793Z,28.70
2024-01-11T00:56:50.627Z,28.60
2024-01-11T01:01:54.838Z,28.70
2024-01-11T01:06:57.705Z,28.70
2024-01-11T01:12:00.557Z,28.70
2024-01-11T01:17:05.153Z,28.60
2024-01-11T01:22:08.011Z,28.60
2024-01-11T01:27:10.841Z,28.60
2024-01-11T01:32:15.128Z,28.60
2024-01-11T01:37:17.994Z,28.60
2024-01-11T01:42:21.950Z,28.70
2024-01-11T01:47:26.621Z,28.60
2024-01-11T01:52:29.735Z,28.70
2024-01-11T01:57:34.849Z,28.80
2024-01-11T02:02:40.100Z,28.40
2024-01-11T02:07:43.365Z,28.30
2024-01-11T02:12:46.318Z,28.30
2024-01-11T02:17:50.618Z,28.40
2024-01-11T02:23:00.714Z,28.40
2024-01-11T02:28:05.419Z,28.60
2024-01-11T02:33:08.628Z,28.70
2024-01-11T02:38:11.802Z,28.80
2024-01-11T02:43:16.268Z,28.60
2024-01-11T02:48:19.177Z,28.40
2024-01-11T02:53:22.089Z,28.10
2024-01-11T02:58:26.330Z,28.00
2024-01-11T03:03:29.227Z,28.00
2024-01-11T03:08:38.120Z,28.10
2024-01-11T03:13:42.496Z,28.10
2024-01-11T03:18:45.451Z,28.10
2024-01-11T03:23:48.379Z,28.10
2024-01-11T03:28:52.573Z,28.20
2024-01-11T03:33:55.670Z,28.20
2024-01-11T03:38:58.968Z,28.10
2024-01-11T03:44:03.243Z,28.10
2024-01-11T03:49:06.236Z,28.10
2024-01-11T03:54:09.230Z,28.10
2024-01-11T03:59:14.035Z,28.00
2024-01-11T04:04:16.977Z,28.00
2024-01-11T04:09:21.402Z,28.00
2024-01-11T04:14:25.672Z,28.00
2024-01-11T04:19:28.877Z,28.10
2024-01-11T04:24:31.852Z,28.10
2024-01-11T04:29:36.138Z,28.20
2024-01-11T04:34:39.067Z,28.10
2024-01-11T04:39:41.939Z,28.10
2024-01-11T04:44:46.192Z,28.10
2024-01-11T04:49:49.093Z,28.50
2024-01-11T04:54:51.969Z,28.00
2024-01-11T04:59:56.755Z,28.10
2024-01-11T05:05:00.685Z,28.10
2024-01-11T05:10:03.943Z,28.20
2024-01-11T05:15:09.513Z,28.30
2024-01-11T05:20:13.035Z,28.20
2024-01-11T05:25:16.248Z,28.10
2024-01-11T05:30:20.786Z,28.10
2024-01-11T05:35:25.083Z,27.90
2024-01-11T05:40:28.439Z,27.90
2024-01-11T05:45:45.382Z,27.90
2024-01-11T05:50:50.465Z,28.00
2024-01-11T05:55:55.234Z,28.00
2024-01-11T06:00:59.890Z,28.00
2024-01-11T06:06:03.341Z,27.90
2024-01-11T06:11:07.004Z,27.80
2024-01-11T06:16:13.413Z,27.80
2024-01-11T06:21:18.215Z,27.80
2024-01-11T06:26:21.244Z,27.90
2024-01-11T06:31:25.444Z,27.80
2024-01-11T06:36:28.327Z,27.90
2024-01-11T06:41:31.236Z,28.00
2024-01-11T06:46:37.104Z,27.90
2024-01-11T06:51:40.206Z,27.90
2024-01-11T06:56:43.141Z,27.80
2024-01-11T07:01:48.180Z,27.90
2024-01-11T07:06:51.067Z,28.00
2024-01-11T07:11:53.956Z,28.00
2024-01-11T07:16:58.290Z,28.00
2024-01-11T07:22:01.180Z,28.10
2024-01-11T07:27:04.223Z,28.10
2024-01-11T07:32:08.755Z,28.20
2024-01-11T07:37:11.630Z,28.10
2024-01-11T07:42:17.232Z,28.20
2024-01-11T07:47:21.439Z,28.10
2024-01-11T07:52:24.325Z,28.10
2024-01-11T07:57:27.235Z,28.00
2024-01-11T08:02:31.613Z,28.10
2024-01-11T08:07:34.729Z,28.10
2024-01-11T08:12:37.813Z,28.10
2024-01-11T08:17:48.235Z,28.30
2024-01-11T08:22:51.457Z,28.00
2024-01-11T08:27:54.279Z,28.00
2024-01-11T08:32:58.558Z,28.00
2024-01-11T08:38:01.613Z,28.10
2024-01-11T08:43:05.183Z,28.10
2024-01-11T08:48:11.221Z,28.10
2024-01-11T08:53:14.350Z,28.10
2024-01-11T08:58:17.214Z,28.10
2024-01-11T09:03:21.424Z,28.10
2024-01-11T09:08:24.365Z,28.00
2024-01-11T09:13:28.182Z,28.00
2024-01-11T09:18:32.707Z,28.00
2024-01-11T09:23:35.775Z,28.10
2024-01-11T09:28:38.729Z,28.10
2024-01-11T09:33:46.616Z,28.20
2024-01-11T09:38:50.032Z,28.10
2024-01-11T09:43:58.731Z,28.10
2024-01-11T09:49:04.951Z,28.10
2024-01-11T09:54:08.811Z,28.10
2024-01-11T09:59:14.718Z,28.20
2024-01-11T10:04:20.209Z,28.20
2024-01-11T10:09:23.888Z,28.10
2024-01-11T10:14:26.819Z,28.10
2024-01-11T10:19:31.306Z,28.00
2024-01-11T10:24:36.515Z,28.00
2024-01-11T10:29:39.637Z,28.00
2024-01-11T10:34:44.198Z,28.00
2024-01-11T10:39:48.148Z,28.00
2024-01-11T10:44:53.659Z,28.00
2024-01-11T10:50:01.278Z,28.00
2024-01-11T10:55:05.255Z,27.90
2024-01-11T11:00:12.873Z,27.80
2024-01-11T11:05:18.712Z,27.80
2024-01-11T11:10:23.166Z,27.80
2024-01-11T11:15:26.678Z,27.90
2024-01-11T11:20:31.616Z,27.90
2024-01-11T11:25:36.581Z,28.00
2024-01-11T11:30:40.656Z,27.90
2024-01-11T11:35:45.121Z,27.90
2024-01-11T11:40:49.945Z,27.80
2024-01-11T11:45:54.077Z,27.80
2024-01-11T11:51:08.080Z,27.80
2024-01-11T11:56:13.492Z,28.40
2024-01-11T12:01:18.363Z,27.90
2024-01-11T12:06:24.998Z,27.90
2024-01-11T12:11:28.251Z,27.80
2024-01-11T12:16:31.247Z,27.80
2024-01-11T12:21:35.765Z,27.80
2024-01-11T12:26:40.079Z,27.80
2024-01-11T12:31:43.264Z,27.80
2024-01-11T12:36:47.577Z,27.80
2024-01-11T12:41:51.520Z,27.90
2024-01-11T12:46:58.563Z,27.90
2024-01-11T12:52:02.784Z,27.90
2024-01-11T12:57:05.962Z,27.70
2024-01-11T13:02:09.108Z,27.70
2024-01-11T13:07:13.613Z,27.70
2024-01-11T13:12:16.481Z,27.70
2024-01-11T13:17:19.544Z,27.80
2024-01-11T13:22:24.248Z,27.80
2024-01-11T13:27:27.148Z,27.80
2024-01-11T13:32:30.552Z,27.70
2024-01-11T13:37:34.714Z,27.70
2024-01-11T13:42:37.670Z,27.70
2024-01-11T13:47:40.691Z,27.70
2024-01-11T13:52:47.216Z,27.80
2024-01-11T13:57:51.754Z,27.90
2024-01-11T14:02:54.702Z,27.80
2024-01-11T14:08:00.839Z,27.90
2024-01-11T14:13:04.277Z,27.90
2024-01-11T14:18:09.075Z,27.90
2024-01-11T14:23:13.581Z,27.90
2024-01-11T14:28:16.604Z,27.90
2024-01-11T14:33:21.141Z,27.80
2024-01-11T14:38:25.660Z,27.80
2024-01-11T14:43:28.552Z,27.80
2024-01-11T14:48:33.430Z,27.80
2024-01-11T14:53:37.785Z,27.80
2024-01-11T14:58:40.698Z,27.90
2024-01-11T15:03:43.655Z,27.90
2024-01-11T15:08:48.099Z,27.90
2024-01-11T15:13:51.240Z,28.00
2024-01-11T15:18:54.478Z,27.90
2024-01-11T15:24:00.364Z,27.80
2024-01-11T15:29:03.328Z,27.80
2024-01-11T15:34:06.512Z,27.70
2024-01-11T15:39:21.717Z,27.70
2024-01-11T15:44:30.392Z,27.60
2024-01-11T15:49:33.360Z,27.50
2024-01-11T15:54:37.630Z,27.40
2024-01-11T15:59:40.774Z,27.40
2024-01-11T16:04:45.170Z,27.40
2024-01-11T16:09:51.044Z,27.30
2024-01-11T16:14:55.125Z,27.20
2024-01-11T16:19:58.092Z,27.20
2024-01-11T16:25:02.429Z,27.20
2024-01-11T16:30:06.727Z,27.00
2024-01-11T16:35:10.416Z,27.10
2024-01-11T16:40:17.712Z,27.20
2024-01-11T16:45:20.905Z,27.10
2024-01-11T16:50:23.782Z,27.10
2024-01-11T16:55:28.171Z,27.10
2024-01-11T17:00:31.032Z,27.10
2024-01-11T17:05:35.051Z,27.20
2024-01-11T17:10:40.517Z,27.10
2024-01-11T17:15:43.934Z,27.20
2024-01-11T17:20:47.047Z,27.30
2024-01-11T17:25:51.359Z,27.40
2024-01-11T17:30:55.023Z,27.40
2024-01-11T17:35:58.141Z,27.40
2024-01-11T17:41:02.912Z,27.40
2024-01-11T17:46:06.316Z,27.50
2024-01-11T17:51:12.746Z,27.40
2024-01-11T17:56:18.529Z,27.40
2024-01-11T18:01:23.023Z,27.40
2024-01-11T18:06:26.176Z,27.90
2024-01-11T18:11:30.413Z,28.00
2024-01-11T18:16:33.337Z,27.10
2024-01-11T18:21:36.324Z,27.30
2024-01-11T18:26:40.508Z,27.30
2024-01-11T18:31:43.425Z,27.40
2024-01-11T18:36:47.700Z,27.40
2024-01-11T18:41:52.632Z,27.40
2024-01-11T18:46:55.642Z,27.40
2024-01-11T18:51:58.551Z,27.40
2024-01-11T18:57:02.924Z,27.40
2024-01-11T19:02:06.360Z,27.40
2024-01-11T19:07:09.519Z,27.30
2024-01-11T19:12:14.127Z,27.20
2024-01-11T19:17:17.068Z,27.20
2024-01-11T19:22:20.076Z,27.10
2024-01-11T19:27:24.335Z,27.10
2024-01-11T19:32:27.258Z,27.00
2024-01-11T19:37:30.401Z,27.00
2024-01-11T19:42:34.602Z,27.00
2024-01-11T19:47:38.601Z,27.30
2024-01-11T19:52:41.702Z,27.10
2024-01-11T19:57:45.979Z,27.10
2024-01-11T20:02:49.022Z,27.10
2024-01-11T20:07:52.204Z,27.10
2024-01-11T20:12:56.452Z,27.00
2024-01-11T20:17:59.401Z,27.30
2024-01-11T20:23:02.648Z,27.40
2024-01-11T20:28:07.718Z,27.30
2024-01-11T20:33:10.886Z,27.30
2024-01-11T20:38:13.978Z,27.40
2024-01-11T20:43:18.285Z,27.50
2024-01-11T20:48:21.477Z,27.60
2024-01-11T20:53:24.742Z,27.60
2024-01-11T20:58:29.057Z,27.50
2024-01-11T21:03:32.884Z,27.50
2024-01-11T21:08:35.840Z,27.80
2024-01-11T21:13:40.066Z,27.60
2024-01-11T21:18:43.061Z,27.60
2024-01-11T21:23:46.068Z,27.60
2024-01-11T21:28:51.366Z,27.90
2024-01-11T21:33:55.168Z,28.00
2024-01-11T21:38:59.317Z,28.30
2024-01-11T21:44:03.613Z,28.30
2024-01-11T21:49:06.604Z,28.60
2024-01-11T21:54:09.751Z,28.70
2024-01-11T21:59:13.982Z,29.50
2024-01-11T22:04:16.917Z,29.40
2024-01-11T22:09:20.128Z,28.90
2024-01-11T22:14:24.475Z,28.70
2024-01-11T22:19:27.633Z,28.50
2024-01-11T22:24:30.592Z,28.30
2024-01-11T22:29:34.896Z,27.90
2024-01-11T22:34:37.803Z,27.90
2024-01-11T22:39:40.705Z,27.90
2024-01-11T22:44:46.752Z,27.90
2024-01-11T22:49:49.697Z,27.90
2024-01-11T22:54:52.605Z,27.90
2024-01-11T22:59:56.833Z,27.60
2024-01-11T23:04:59.761Z,27.60
2024-01-11T23:10:02.691Z,27.60
2024-01-11T23:15:08.209Z,27.60
2024-01-11T23:20:11.931Z,27.70
2024-01-11T23:25:15.009Z,27.80
2024-01-11T23:30:19.528Z,27.90
2024-01-11T23:35:22.528Z,28.00
2024-01-11T23:40:25.383Z,28.00
2024-01-11T23:45:29.552Z,28.00
2024-01-11T23:50:32.562Z,28.10
2024-01-11T23:55:35.590Z,28.00
